To NAV CANADA Home Page Login to a new session Search on AWWS site Disclaimer Vers la page française équivalente Tips FAQ What's new on the site To the Forecasts and Observations / NOTAM section To "File a Flight Plan" website Publications and other links Update of the User's profile FIC Telephone Numbers My Weather Data Folder Route Weather Data Regional Weather Data Local Weather Data To the Forecasts and Observations / NOTAM section
Request Generated 06/14/2021 at 17:11:15 UTC . Weather information available at that time is displayed.


Save this request

METAR/TAF

ESTEVAN REGIONAL/SK    (show WxCam)

METAR CYEN 141700Z AUTO 15012G17KT 9SM CLR 25/09 A3018 RMK SLP223 DENSITY ALT 3300FT=
METAR CYEN 141600Z AUTO 13012G20KT 9SM CLR 24/09 A3018 RMK SLP222 DENSITY ALT 3200FT=
METAR CYEN 141500Z AUTO 14011G16KT 9SM CLR 23/09 A3019 RMK SLP225 DENSITY ALT 3000FT=

TAF CYEN 141138Z 1412/1424 12006KT P6SM SKC
BECMG 1413/1415 13012KT
RMK FCST BASED ON AUTO OBS. NXT FCST BY 141800Z=

MOOSE JAW/AIR VICE MARSHAL C.M. MCEWEN/SK    

METAR CYMJ 141700Z 13016G22KT 15SM FEW070 FEW260 27/10 A3012 RMK AC1CI1 SLP196=
METAR CYMJ 141600Z 15016G23KT 15SM FEW260 25/10 A3012 RMK CI1 SLP197=
METAR CYMJ 141500Z 15015KT 15SM FEW260 24/10 A3012 RMK CI1 SLP196=

TAF CYMJ 141130Z 1412/1424 13008KT P6SM SCT260
BECMG 1412/1414 13015KT
BECMG 1416/1418 14020KT
FM142200 14020G30KT P6SM SCT200
RMK NXT FCST BY 141800Z=

REGINA INTL/SK    

METAR CYQR 141700Z 14014G22KT 15SM FEW065 FEW120 26/10 A3015 RMK CU1AC1 CU TR AC TR SLP213 DENSITY ALT 3400FT=
METAR CYQR 141600Z 13016G22KT 15SM FEW100 24/10 A3016 RMK AC1 AC TR SLP215 DENSITY ALT 3200FT=
METAR CYQR 141500Z 14016KT 15SM SKC 22/10 A3016 RMK SLP213 DENSITY ALT 2900FT=

TAF CYQR 141138Z 1412/1512 13010KT P6SM FEW200
BECMG 1415/1417 14020KT
RMK NXT FCST BY 141800Z=

SASKATOON/JOHN G. DIEFENBAKER INTL/SK    

METAR CYXE 141700Z 16013KT 15SM FEW100 28/11 A3005 RMK AC1 SLP176 DENSITY ALT 3400FT=
METAR CYXE 141600Z 15013G18KT 15SM FEW100 26/11 A3005 RMK AC1 AC TR SLP178 DENSITY ALT 3200FT=
METAR CYXE 141500Z 16017KT 15SM FEW300 24/10 A3007 RMK CI1 SLP183 DENSITY ALT 3000FT=

TAF CYXE 141138Z 1412/1512 13010KT P6SM FEW250
BECMG 1417/1419 14020KT
FM150300 14015G25KT P6SM FEW160
RMK NXT FCST BY 141800Z=

YORKTON MUNICIPALITY/SK    (show WxCam)

METAR CYQV 141700Z AUTO 16007KT 120V240 9SM CLR 26/06 A3019 RMK SLP227 DENSITY ALT 3000FT=
METAR CYQV 141600Z AUTO 17006KT 130V190 9SM CLR 25/07 A3019 RMK SLP224 DENSITY ALT 2900FT=
METAR CYQV 141500Z AUTO 13005KT 110V170 9SM CLR 23/09 A3018 RMK SLP223 DENSITY ALT 2700FT=

TAF CYQV 141138Z 1412/1424 19005KT P6SM SKC
BECMG 1413/1415 14010KT
RMK FCST BASED ON AUTO OBS. NXT FCST BY 141800Z=

BRANDON MUNICIPALITY/MB    

METAR CYBR 141700Z 08003KT 040V120 15SM SKC 25/09 A3020 RMK SLP233 DENSITY ALT 2600FT=
METAR CYBR 141600Z 05005KT 030V130 15SM SKC 24/11 A3019 RMK SLP229 DENSITY ALT 2400FT=
METAR CYBR 141500Z 12004KT 15SM SKC 23/13 A3019 RMK SLP228 DENSITY ALT 2300FT=

TAF CYBR 141138Z 1412/1424 30006KT P6SM SKC
BECMG 1412/1414 08008KT
BECMG 1420/1422 08012KT
RMK NXT FCST BY 141800Z=

PORTAGE LA PRAIRIE/SOUTHPORT/MB    

METAR CYPG 141700Z 05004KT 15SM SKC 26/12 A3018 RMK DA2258FT SLP218=
METAR CYPG 141600Z 00000KT 15SM SKC 24/11 A3018 RMK DA2078FT SLP219=
METAR CYPG 141500Z 02004KT 15SM SKC 23/10 A3018 RMK DA1924FT SLP219=

TAF CYPG 141215Z 1412/1424 28005KT P6SM SKC
BECMG 1414/1416 01008KT
BECMG 1416/1418 01010G20KT
RMK NXT FCST BY 141800Z=

WINNIPEG/JAMES ARMSTRONG RICHARDSON INTL/MB    

METAR CYWG 141700Z 03010G15KT 360V070 15SM SKC 24/12 A3015 RMK SLP214 DENSITY ALT 1800FT=
METAR CYWG 141600Z 03011KT 340V050 15SM SKC 24/11 A3015 RMK SLP213 DENSITY ALT 1800FT=
METAR CYWG 141500Z 36010KT 15SM SKC 23/10 A3015 RMK SLP214 DENSITY ALT 1700FT=

TAF CYWG 141138Z 1412/1512 30005KT P6SM SKC
BECMG 1413/1415 36012KT
FM150300 04008KT P6SM SKC
BECMG 1510/1512 15010KT
RMK NXT FCST BY 141800Z=


Your time UTC time
Weather data provided by Environment Canada and NAV CANADA